createdAt,value
2018-08-25T00:00:12.217Z,16.50
2018-08-25T00:02:40.437Z,16.40
2018-08-25T00:05:08.645Z,16.40
2018-08-25T00:07:36.860Z,16.40
2018-08-25T00:10:05.201Z,16.40
2018-08-25T00:12:33.404Z,16.40
2018-08-25T00:15:01.629Z,16.50
2018-08-25T00:17:29.826Z,16.60
2018-08-25T00:19:58.086Z,16.60
2018-08-25T00:22:26.533Z,16.60
2018-08-25T00:24:54.729Z,16.70
2018-08-25T00:27:23.016Z,16.70
2018-08-25T00:31:23.727Z,16.70
2018-08-25T00:33:53.008Z,16.70
2018-08-25T00:36:21.808Z,16.50
2018-08-25T00:38:50.005Z,16.40
2018-08-25T00:41:18.217Z,16.30
2018-08-25T00:43:46.476Z,16.20
2018-08-25T00:46:14.957Z,16.30
2018-08-25T00:48:43.185Z,16.30
2018-08-25T00:51:11.403Z,16.40
2018-08-25T00:53:39.617Z,16.30
2018-08-25T00:56:07.867Z,16.40
2018-08-25T00:58:36.285Z,16.50
2018-08-25T01:01:04.665Z,16.40
2018-08-25T01:03:32.905Z,16.50
2018-08-25T01:06:01.194Z,16.50
2018-08-25T01:08:29.481Z,16.50
2018-08-25T01:10:57.718Z,16.60
2018-08-25T01:13:25.973Z,16.50
2018-08-25T01:15:54.225Z,16.40
2018-08-25T01:18:22.521Z,16.40
2018-08-25T01:20:50.985Z,16.50
2018-08-25T01:23:19.579Z,16.50
2018-08-25T01:25:47.800Z,16.50
2018-08-25T01:28:16.013Z,16.40
2018-08-25T01:30:44.241Z,16.30
2018-08-25T01:33:12.512Z,16.30
2018-08-25T01:35:40.701Z,16.30
2018-08-25T01:38:09.167Z,16.40
2018-08-25T01:40:37.345Z,16.40
2018-08-25T01:43:06.085Z,16.40
2018-08-25T01:45:34.310Z,16.40
2018-08-25T01:48:02.511Z,16.40
2018-08-25T01:50:30.725Z,16.40
2018-08-25T01:52:59.029Z,16.40
2018-08-25T01:55:27.217Z,16.40
2018-08-25T01:57:55.446Z,16.30
2018-08-25T02:00:23.705Z,16.40
2018-08-25T02:02:51.934Z,16.40
2018-08-25T02:05:20.334Z,16.40
2018-08-25T02:07:48.561Z,16.40
2018-08-25T02:10:16.765Z,16.40
2018-08-25T02:12:45.005Z,16.40
2018-08-25T02:15:13.197Z,16.40
2018-08-25T02:17:41.428Z,16.40
2018-08-25T02:20:09.629Z,16.40
2018-08-25T02:22:37.835Z,16.40
2018-08-25T02:25:06.265Z,16.40
2018-08-25T02:27:34.524Z,16.30
2018-08-25T02:30:02.754Z,16.30
2018-08-25T02:32:30.955Z,16.40
2018-08-25T02:34:59.182Z,16.30
2018-08-25T02:37:27.378Z,16.30
2018-08-25T02:39:55.594Z,16.30
2018-08-25T02:42:23.784Z,16.40
2018-08-25T02:44:52.045Z,16.40
2018-08-25T02:47:20.256Z,16.40
2018-08-25T02:49:48.690Z,16.40
2018-08-25T02:52:16.981Z,16.40
2018-08-25T02:54:45.191Z,16.40
2018-08-25T02:57:13.468Z,16.30
2018-08-25T02:59:41.690Z,16.50
2018-08-25T03:02:09.931Z,16.40
2018-08-25T03:04:38.201Z,16.40
2018-08-25T03:07:06.500Z,16.50
2018-08-25T03:09:34.685Z,16.50
2018-08-25T03:12:03.213Z,16.50
2018-08-25T03:14:31.441Z,16.50
2018-08-25T03:16:59.655Z,16.50
2018-08-25T03:19:27.867Z,16.50
2018-08-25T03:21:56.055Z,16.50
2018-08-25T03:24:24.253Z,16.50
2018-08-25T03:26:52.493Z,16.40
2018-08-25T03:29:20.753Z,16.40
2018-08-25T03:31:48.982Z,16.50
2018-08-25T03:34:17.213Z,16.50
2018-08-25T03:36:45.429Z,16.50
2018-08-25T03:39:13.736Z,16.40
2018-08-25T03:41:41.941Z,16.40
2018-08-25T03:44:10.968Z,16.40
2018-08-25T03:46:39.176Z,16.40
2018-08-25T03:49:07.416Z,16.40
2018-08-25T03:51:35.847Z,16.50
2018-08-25T03:54:04.137Z,16.50
2018-08-25T03:56:32.349Z,16.40
2018-08-25T03:59:00.541Z,16.40
2018-08-25T04:01:28.781Z,16.40
2018-08-25T04:03:56.984Z,16.30
2018-08-25T04:06:25.193Z,16.30
2018-08-25T04:08:53.409Z,16.20
2018-08-25T04:11:21.605Z,16.20
2018-08-25T04:13:49.857Z,16.10
2018-08-25T04:16:18.267Z,16.20
2018-08-25T04:18:46.458Z,16.20
2018-08-25T04:21:14.684Z,16.20
2018-08-25T04:23:42.849Z,16.20
2018-08-25T04:26:11.068Z,16.10
2018-08-25T04:28:39.252Z,16.10
2018-08-25T04:31:07.442Z,16.10
2018-08-25T04:33:35.739Z,16.10
2018-08-25T04:36:03.889Z,16.00
2018-08-25T04:38:32.135Z,16.00
2018-08-25T04:41:00.351Z,16.00
2018-08-25T04:43:28.562Z,16.10
2018-08-25T04:45:56.765Z,16.20
2018-08-25T04:48:24.981Z,16.10
2018-08-25T04:50:53.190Z,16.10
2018-08-25T04:53:21.369Z,16.00
2018-08-25T04:55:49.589Z,16.00
2018-08-25T04:58:17.808Z,15.90
2018-08-25T05:00:46.291Z,15.90
2018-08-25T05:03:14.494Z,15.80
2018-08-25T05:05:42.684Z,15.80
2018-08-25T05:08:11.156Z,15.90
2018-08-25T05:10:39.366Z,15.90
2018-08-25T05:13:07.569Z,16.00
2018-08-25T05:15:35.825Z,16.00
2018-08-25T05:18:04.050Z,16.10
2018-08-25T05:20:32.274Z,16.10
2018-08-25T05:23:00.494Z,16.00
2018-08-25T05:25:28.749Z,16.10
2018-08-25T05:27:56.978Z,16.10
2018-08-25T05:30:25.169Z,16.10
2018-08-25T05:32:53.452Z,16.20
2018-08-25T05:35:21.648Z,16.30
2018-08-25T05:37:49.878Z,16.40
2018-08-25T05:40:18.123Z,16.40
2018-08-25T05:42:46.316Z,16.50
2018-08-25T05:45:14.647Z,16.50
2018-08-25T05:47:42.853Z,16.50
2018-08-25T05:50:11.075Z,16.40
2018-08-25T05:52:39.301Z,16.30
2018-08-25T05:55:07.526Z,16.40
2018-08-25T05:57:35.741Z,16.40
2018-08-25T06:00:04.564Z,16.40
2018-08-25T06:02:32.773Z,16.40
2018-08-25T06:05:00.961Z,16.50
2018-08-25T06:07:29.449Z,16.70
2018-08-25T06:09:57.699Z,16.70
2018-08-25T06:12:25.905Z,16.80
2018-08-25T06:14:54.098Z,16.90
2018-08-25T06:17:22.297Z,16.80
2018-08-25T06:19:50.496Z,16.80
2018-08-25T06:22:18.686Z,16.90
2018-08-25T06:24:46.864Z,16.90
2018-08-25T06:27:15.050Z,17.00
2018-08-25T06:29:43.283Z,17.20
2018-08-25T06:32:11.453Z,17.40
2018-08-25T06:34:39.677Z,17.40
2018-08-25T06:37:07.869Z,17.30
2018-08-25T06:39:36.070Z,17.20
2018-08-25T06:42:04.311Z,17.40
2018-08-25T06:44:32.518Z,17.30
2018-08-25T06:47:00.725Z,17.40
2018-08-25T06:49:28.917Z,17.60
2018-08-25T06:51:57.235Z,17.60
2018-08-25T06:54:25.405Z,17.70
2018-08-25T06:56:53.580Z,17.60
2018-08-25T06:59:21.781Z,17.50
2018-08-25T07:01:49.960Z,17.60
2018-08-25T07:04:18.147Z,17.70
2018-08-25T07:06:46.381Z,17.80
2018-08-25T07:09:14.565Z,18.00
2018-08-25T07:11:42.949Z,17.90
2018-08-25T07:14:11.779Z,17.90
2018-08-25T07:16:40.300Z,18.00
2018-08-25T07:19:08.522Z,18.00
2018-08-25T07:21:36.820Z,17.90
2018-08-25T07:24:05.039Z,17.90
2018-08-25T07:26:33.273Z,18.00
2018-08-25T07:29:01.476Z,18.00
2018-08-25T07:31:29.671Z,18.00
2018-08-25T07:33:57.901Z,18.10
2018-08-25T07:36:26.193Z,18.30
2018-08-25T07:38:54.417Z,18.50
2018-08-25T07:41:22.645Z,18.70
2018-08-25T07:43:50.877Z,18.90
2018-08-25T07:46:19.089Z,19.00
2018-08-25T07:48:47.328Z,19.10
2018-08-25T07:51:15.516Z,19.20
2018-08-25T07:53:43.732Z,19.20
2018-08-25T07:56:11.977Z,19.10
2018-08-25T07:58:41.336Z,19.00
2018-08-25T08:01:09.555Z,18.90
2018-08-25T08:03:37.761Z,18.90
2018-08-25T08:12:50.013Z,18.70
2018-08-25T08:15:18.206Z,18.50
2018-08-25T08:17:46.453Z,18.60
2018-08-25T08:20:14.900Z,18.80
2018-08-25T08:22:43.096Z,18.90
2018-08-25T08:25:11.349Z,19.10
2018-08-25T08:27:39.596Z,19.40
2018-08-25T08:30:07.829Z,19.60
2018-08-25T08:32:36.055Z,19.80
2018-08-25T08:35:04.325Z,20.10
2018-08-25T08:37:32.932Z,20.10
2018-08-25T08:40:01.105Z,20.10
2018-08-25T08:42:29.422Z,20.20
2018-08-25T08:44:57.597Z,20.30
2018-08-25T08:47:25.853Z,20.50
2018-08-25T08:49:54.257Z,20.50
2018-08-25T08:52:22.381Z,20.30
2018-08-25T08:54:50.585Z,20.30
2018-08-25T08:57:19.034Z,20.30
2018-08-25T08:59:47.221Z,20.10
2018-08-25T09:02:16.389Z,20.30
2018-08-25T09:04:44.602Z,20.30
2018-08-25T09:07:12.794Z,20.20
2018-08-25T09:09:41.017Z,20.30
2018-08-25T09:12:09.218Z,20.50
2018-08-25T09:14:37.424Z,20.60
2018-08-25T09:17:06.305Z,20.60
2018-08-25T09:19:34.576Z,20.90
2018-08-25T09:22:02.705Z,21.10
2018-08-25T09:24:30.917Z,21.30
2018-08-25T09:26:59.276Z,21.50
2018-08-25T09:29:27.469Z,21.60
2018-08-25T09:31:55.688Z,21.60
2018-08-25T09:34:23.905Z,21.50
2018-08-25T09:36:52.262Z,21.40
2018-08-25T09:39:20.333Z,21.40
2018-08-25T09:41:48.954Z,21.40
2018-08-25T09:44:17.111Z,21.50
2018-08-25T09:46:45.305Z,21.50
2018-08-25T09:49:13.502Z,21.50
2018-08-25T09:51:41.697Z,21.30
2018-08-25T09:54:10.089Z,21.30
2018-08-25T09:56:38.592Z,21.40
2018-08-25T09:59:07.198Z,21.20
2018-08-25T10:01:40.678Z,20.80
2018-08-25T10:04:08.900Z,20.40
2018-08-25T10:06:37.085Z,20.40
2018-08-25T10:09:07.504Z,20.60
2018-08-25T10:11:35.733Z,20.80
2018-08-25T10:14:04.250Z,20.90
2018-08-25T10:16:32.546Z,21.00
2018-08-25T10:19:00.859Z,21.00
2018-08-25T10:21:29.086Z,20.90
2018-08-25T10:23:57.311Z,20.90
2018-08-25T10:26:25.750Z,21.00
2018-08-25T10:28:53.991Z,21.10
2018-08-25T10:31:22.353Z,21.30
2018-08-25T10:33:50.565Z,21.40
2018-08-25T10:36:18.966Z,21.40
2018-08-25T10:38:47.153Z,21.40
2018-08-25T10:41:15.348Z,21.20
2018-08-25T10:43:43.576Z,21.30
2018-08-25T10:46:11.761Z,21.20
2018-08-25T10:48:40.068Z,21.20
2018-08-25T10:51:08.265Z,20.90
2018-08-25T10:53:36.661Z,20.60
2018-08-25T10:56:04.887Z,20.80
2018-08-25T10:58:33.275Z,20.90
2018-08-25T11:01:01.565Z,21.00
2018-08-25T11:03:29.720Z,21.10
2018-08-25T11:05:57.899Z,21.10
2018-08-25T11:08:26.093Z,21.20
2018-08-25T11:10:54.292Z,21.20
2018-08-25T11:13:22.505Z,21.20
2018-08-25T11:15:50.685Z,21.10
2018-08-25T11:18:19.265Z,21.10
2018-08-25T11:20:47.462Z,21.20
2018-08-25T11:23:15.834Z,20.80
2018-08-25T11:25:44.018Z,20.90
2018-08-25T11:28:12.225Z,21.00
2018-08-25T11:30:40.461Z,21.10
2018-08-25T11:33:08.937Z,21.10
2018-08-25T11:35:37.133Z,21.40
2018-08-25T11:38:05.871Z,21.80
2018-08-25T11:40:33.973Z,22.10
2018-08-25T11:43:02.193Z,22.30
2018-08-25T11:45:30.389Z,22.20
2018-08-25T11:47:58.614Z,22.40
2018-08-25T11:50:27.078Z,22.80
2018-08-25T11:52:55.253Z,22.90
2018-08-25T11:55:23.425Z,22.90
2018-08-25T11:57:51.765Z,23.20
2018-08-25T12:00:19.989Z,23.60
2018-08-25T12:02:48.189Z,23.90
2018-08-25T12:05:16.431Z,23.70
2018-08-25T12:07:44.632Z,23.30
2018-08-25T12:10:12.877Z,22.80
2018-08-25T12:12:41.075Z,22.40
2018-08-25T12:15:09.281Z,22.10
2018-08-25T12:17:37.768Z,21.80
2018-08-25T12:20:06.147Z,21.80
2018-08-25T12:22:34.770Z,21.80
2018-08-25T12:25:02.957Z,22.10
2018-08-25T12:27:31.159Z,22.30
2018-08-25T12:29:59.374Z,22.30
2018-08-25T12:32:27.607Z,22.30
2018-08-25T12:34:55.829Z,22.30
2018-08-25T12:37:24.302Z,22.10
2018-08-25T12:39:52.562Z,21.70
2018-08-25T12:42:20.781Z,21.20
2018-08-25T12:44:49.266Z,20.90
2018-08-25T12:47:20.587Z,20.80
2018-08-25T12:49:48.949Z,20.70
2018-08-25T12:52:17.177Z,20.60
2018-08-25T12:54:45.413Z,20.40
2018-08-25T12:57:13.915Z,20.10
2018-08-25T12:59:42.127Z,19.90
2018-08-25T13:02:10.641Z,19.70
2018-08-25T13:04:38.834Z,19.50
2018-08-25T13:07:07.157Z,19.30
2018-08-25T13:09:35.366Z,19.00
2018-08-25T13:12:03.551Z,18.60
2018-08-25T13:14:31.790Z,18.30
2018-08-25T13:16:59.942Z,18.10
2018-08-25T13:19:28.145Z,17.90
2018-08-25T13:21:56.501Z,17.80
2018-08-25T13:24:24.678Z,17.70
2018-08-25T13:26:52.893Z,17.70
2018-08-25T13:29:21.308Z,17.70
2018-08-25T13:31:49.523Z,17.70
2018-08-25T13:34:17.738Z,17.70
2018-08-25T13:36:45.947Z,17.70
2018-08-25T13:39:14.153Z,17.70
2018-08-25T13:41:42.546Z,17.90
2018-08-25T13:44:12.207Z,17.90
2018-08-25T13:46:40.409Z,17.70
2018-08-25T13:49:08.621Z,17.30
2018-08-25T13:51:37.045Z,16.90
2018-08-25T13:54:05.282Z,16.70
2018-08-25T13:56:33.639Z,16.60
2018-08-25T13:59:01.869Z,16.60
2018-08-25T14:01:30.081Z,16.50
2018-08-25T14:03:58.399Z,16.50
2018-08-25T14:06:26.676Z,16.50
2018-08-25T14:08:54.854Z,16.40
2018-08-25T14:11:23.085Z,16.40
2018-08-25T14:13:51.687Z,16.30
2018-08-25T14:16:20.144Z,16.20
2018-08-25T14:18:48.309Z,16.30
2018-08-25T14:21:16.527Z,16.30
2018-08-25T14:23:44.766Z,16.20
2018-08-25T14:26:13.001Z,16.30
2018-08-25T14:28:41.352Z,16.20
2018-08-25T14:31:09.625Z,16.30
2018-08-25T14:33:37.831Z,16.30
2018-08-25T14:36:06.287Z,16.30
2018-08-25T14:38:34.498Z,16.30
2018-08-25T14:41:02.710Z,16.20
2018-08-25T14:43:31.002Z,16.10
2018-08-25T14:45:59.258Z,15.90
2018-08-25T14:48:27.467Z,15.90
2018-08-25T14:50:55.685Z,15.70
2018-08-25T14:53:23.887Z,15.70
2018-08-25T14:55:52.111Z,15.70
2018-08-25T14:58:20.500Z,15.90
2018-08-25T15:00:48.726Z,15.80
2018-08-25T15:03:16.900Z,15.70
2018-08-25T15:05:45.307Z,15.80
2018-08-25T15:08:13.467Z,15.70
2018-08-25T15:10:41.860Z,15.70
2018-08-25T15:13:10.114Z,15.50
2018-08-25T15:15:38.254Z,15.50
2018-08-25T15:18:06.469Z,15.50
2018-08-25T15:20:34.697Z,15.50
2018-08-25T15:23:02.889Z,15.50
2018-08-25T15:25:31.093Z,15.40
2018-08-25T15:27:59.486Z,15.40
2018-08-25T15:30:27.685Z,15.40
2018-08-25T15:32:55.897Z,15.50
2018-08-25T15:35:24.130Z,15.50
2018-08-25T15:37:52.327Z,15.60
2018-08-25T15:40:20.541Z,15.60
2018-08-25T15:42:48.856Z,15.60
2018-08-25T15:45:17.037Z,15.50
2018-08-25T15:47:45.224Z,15.40
2018-08-25T15:50:13.422Z,15.30
2018-08-25T15:52:41.623Z,15.20
2018-08-25T15:55:09.875Z,15.10
2018-08-25T15:57:38.136Z,15.00
2018-08-25T16:00:06.628Z,15.00
2018-08-25T16:02:35.125Z,15.00
2018-08-25T16:05:03.646Z,15.10
2018-08-25T16:07:31.868Z,15.10
2018-08-25T16:10:00.090Z,15.10
2018-08-25T16:12:28.334Z,15.10
2018-08-25T16:14:56.503Z,15.20
2018-08-25T16:17:24.718Z,15.30
2018-08-25T16:19:53.166Z,15.30
2018-08-25T16:22:21.174Z,15.20
2018-08-25T16:24:49.640Z,15.10
2018-08-25T16:27:17.825Z,15.10
2018-08-25T16:29:46.029Z,15.10
2018-08-25T16:32:14.270Z,15.10
2018-08-25T16:34:42.825Z,15.10
2018-08-25T16:37:11.285Z,15.00
2018-08-25T16:39:39.495Z,15.00
2018-08-25T16:42:08.101Z,15.00
2018-08-25T16:44:36.281Z,15.00
2018-08-25T16:47:04.511Z,15.00
2018-08-25T16:49:32.984Z,15.00
2018-08-25T16:52:01.143Z,15.00
2018-08-25T16:54:29.336Z,14.90
2018-08-25T16:56:57.565Z,14.90
2018-08-25T16:59:26.284Z,14.80
2018-08-25T17:01:54.500Z,14.70
2018-08-25T17:04:22.699Z,14.70
2018-08-25T17:06:50.898Z,14.70
2018-08-25T17:10:22.205Z,14.60
2018-08-25T17:12:50.401Z,14.50
2018-08-25T17:15:18.631Z,14.40
2018-08-25T17:17:46.830Z,14.40
2018-08-25T17:20:15.204Z,14.40
2018-08-25T17:22:43.449Z,14.50
2018-08-25T17:25:11.666Z,14.60
2018-08-25T17:27:39.853Z,14.50
2018-08-25T17:30:08.214Z,14.50
2018-08-25T17:32:36.464Z,14.50
2018-08-25T17:35:04.906Z,14.40
2018-08-25T17:37:33.409Z,14.40
2018-08-25T17:40:02.073Z,14.50
2018-08-25T17:42:30.129Z,14.40
2018-08-25T17:44:58.501Z,14.30
2018-08-25T17:47:26.713Z,14.30
2018-08-25T17:49:55.135Z,14.20
2018-08-25T17:52:23.353Z,14.30
2018-08-25T17:54:51.573Z,14.30
2018-08-25T17:57:19.870Z,14.30
2018-08-25T17:59:48.041Z,14.30
2018-08-25T18:02:16.266Z,14.30
2018-08-25T18:04:44.485Z,14.30
2018-08-25T18:07:12.674Z,14.30
2018-08-25T18:09:40.962Z,14.30
2018-08-25T18:12:09.222Z,14.20
2018-08-25T18:14:37.878Z,14.10
2018-08-25T18:17:06.074Z,14.10
2018-08-25T18:19:34.297Z,14.00
2018-08-25T18:22:02.521Z,14.10
2018-08-25T18:24:30.753Z,14.10
2018-08-25T18:26:58.988Z,14.10
2018-08-25T18:29:27.197Z,14.10
2018-08-25T18:31:55.478Z,14.10
2018-08-25T18:34:23.685Z,14.10
2018-08-25T18:36:51.933Z,14.10
2018-08-25T18:39:20.253Z,14.10
2018-08-25T18:41:48.414Z,14.00
2018-08-25T18:44:16.880Z,14.00
2018-08-25T18:46:45.081Z,14.10
2018-08-25T18:49:13.261Z,14.10
2018-08-25T18:51:41.485Z,14.10
2018-08-25T18:54:09.764Z,14.10
2018-08-25T18:56:38.295Z,14.10
2018-08-25T18:59:06.710Z,14.00
2018-08-25T19:01:34.943Z,14.00
2018-08-25T19:04:03.460Z,14.10
2018-08-25T19:06:31.701Z,14.20
2018-08-25T19:08:59.898Z,14.20
2018-08-25T19:11:28.081Z,14.20
2018-08-25T19:13:56.488Z,14.30
2018-08-25T19:16:24.709Z,14.30
2018-08-25T19:18:52.904Z,14.40
2018-08-25T19:21:21.134Z,14.30
2018-08-25T19:23:49.384Z,14.40
2018-08-25T19:26:17.530Z,14.30
2018-08-25T19:28:45.713Z,14.30
2018-08-25T19:31:13.955Z,14.30
2018-08-25T19:33:42.154Z,14.20
2018-08-25T19:36:10.382Z,14.20
2018-08-25T19:38:38.591Z,14.20
2018-08-25T19:41:06.843Z,14.20
2018-08-25T19:43:35.050Z,14.30
2018-08-25T19:46:03.265Z,14.30
2018-08-25T19:48:31.481Z,14.30
2018-08-25T19:50:59.709Z,14.20
2018-08-25T19:53:28.762Z,14.20
2018-08-25T19:55:56.953Z,14.10
2018-08-25T19:58:25.157Z,14.20
2018-08-25T20:00:53.357Z,14.30
2018-08-25T20:03:21.557Z,14.40
2018-08-25T20:05:49.907Z,14.40
2018-08-25T20:08:18.201Z,14.30
2018-08-25T20:10:46.440Z,14.30
2018-08-25T20:13:14.959Z,14.30
2018-08-25T20:15:43.221Z,14.40
2018-08-25T20:18:11.409Z,14.40
2018-08-25T20:20:39.771Z,14.40
2018-08-25T20:23:08.170Z,14.50
2018-08-25T20:25:36.419Z,14.50
2018-08-25T20:28:04.744Z,14.50
2018-08-25T20:30:33.005Z,14.60
2018-08-25T20:33:01.145Z,14.60
2018-08-25T20:35:29.373Z,14.50
2018-08-25T20:37:57.630Z,14.50
2018-08-25T20:40:25.862Z,14.40
2018-08-25T20:42:54.094Z,14.20
2018-08-25T20:45:22.379Z,14.00
2018-08-25T20:47:50.534Z,13.90
2018-08-25T20:50:18.755Z,13.80
2018-08-25T20:52:46.977Z,13.80
2018-08-25T20:55:15.178Z,13.70
2018-08-25T20:57:43.394Z,13.70
2018-08-25T21:00:11.602Z,13.70
2018-08-25T21:02:39.873Z,13.70
2018-08-25T21:05:08.197Z,13.50
2018-08-25T21:07:36.404Z,13.40
2018-08-25T21:10:05.007Z,13.50
2018-08-25T21:12:33.273Z,13.60
2018-08-25T21:15:01.461Z,13.60
2018-08-25T21:17:29.662Z,13.70
2018-08-25T21:19:57.881Z,13.70
2018-08-25T21:22:26.109Z,13.60
2018-08-25T21:24:54.338Z,13.50
2018-08-25T21:27:22.545Z,13.30
2018-08-25T21:29:50.763Z,13.10
2018-08-25T21:32:18.964Z,12.90
2018-08-25T21:34:47.498Z,12.90
2018-08-25T21:37:15.745Z,12.80
2018-08-25T21:39:43.962Z,12.80
2018-08-25T21:42:12.246Z,12.70
2018-08-25T21:44:40.545Z,12.70
2018-08-25T21:47:08.846Z,12.60
2018-08-25T21:49:37.047Z,12.50
2018-08-25T21:52:05.260Z,12.40
2018-08-25T21:54:33.469Z,12.30
2018-08-25T21:57:01.953Z,12.10
2018-08-25T21:59:30.205Z,11.90
2018-08-25T22:01:59.105Z,11.80
2018-08-25T22:04:28.170Z,11.60
2018-08-25T22:06:57.150Z,11.60
2018-08-25T22:09:25.381Z,11.50
2018-08-25T22:11:53.929Z,11.40
2018-08-25T22:14:22.153Z,11.40
2018-08-25T22:16:50.672Z,11.50
2018-08-25T22:19:19.000Z,11.50
2018-08-25T22:21:47.237Z,11.50
2018-08-25T22:24:15.960Z,11.50
2018-08-25T22:26:44.302Z,11.60
2018-08-25T22:29:12.497Z,11.70
2018-08-25T22:31:40.738Z,11.70
2018-08-25T22:34:08.997Z,11.70
2018-08-25T22:36:37.187Z,11.70
2018-08-25T22:39:07.521Z,11.70
2018-08-25T22:41:35.917Z,11.80
2018-08-25T22:44:04.125Z,11.90
2018-08-25T22:46:32.329Z,11.90
2018-08-25T22:49:01.004Z,11.90
2018-08-25T22:51:29.393Z,12.00
2018-08-25T22:53:57.600Z,12.00
2018-08-25T22:56:25.821Z,12.00
2018-08-25T22:58:54.061Z,12.10
2018-08-25T23:01:22.385Z,12.20
2018-08-25T23:03:50.701Z,12.30
2018-08-25T23:06:18.949Z,12.30
2018-08-25T23:08:47.141Z,12.40
2018-08-25T23:11:15.401Z,12.40
2018-08-25T23:13:43.622Z,12.50
2018-08-25T23:16:11.834Z,12.60
2018-08-25T23:18:40.017Z,12.50
2018-08-25T23:21:08.238Z,12.60
2018-08-25T23:23:36.462Z,12.60
2018-08-25T23:26:04.873Z,12.60
2018-08-25T23:28:33.194Z,12.70
2018-08-25T23:31:01.410Z,12.70
2018-08-25T23:33:29.600Z,12.70
2018-08-25T23:35:57.865Z,12.70
2018-08-25T23:38:26.109Z,12.70
2018-08-25T23:40:54.332Z,12.60
2018-08-25T23:43:22.533Z,12.70
2018-08-25T23:45:50.765Z,12.70
2018-08-25T23:48:19.004Z,12.70
2018-08-25T23:50:47.245Z,12.60
2018-08-25T23:53:15.451Z,12.60
2018-08-25T23:55:43.645Z,12.60
2018-08-25T23:58:11.898Z,12.70
